Time;durP1;ratioP1;P1;durP2;ratioP2;P2;SDS_P1;SDS_P2;PMS_P1;PMS_P2;Temp;Humidity;BMP_temperature;BMP_pressure;BME280_temperature;BME280_humidity;BME280_pressure;Samples;Min_cycle;Max_cycle;Signal;HPM_P1;HPM_P2
2022/03/12 00:00:00;;;;;;;;;;;22.00;25.10;;;;;;5050444;28;19925;-73
2022/03/12 00:02:30;;;;;;;;;;;22.00;25.10;;;;;;5052281;28;19924;-73
2022/03/12 00:04:57;;;;;;;;;;;22.00;25.10;;;;;;5050503;28;19976;-72
2022/03/12 00:07:27;;;;;;;;;;;22.00;25.10;;;;;;5051727;28;19986;-73
2022/03/12 00:09:54;;;;;;;;;;;22.00;25.10;;;;;;5050538;28;19924;-73
2022/03/12 00:12:21;;;;;;;;;;;22.00;25.10;;;;;;5051671;28;20244;-74
2022/03/12 00:14:49;;;;;;;;;;;21.90;25.10;;;;;;5051665;28;19925;-74
2022/03/12 00:17:18;;;;;;;;;;;21.90;25.10;;;;;;5050284;28;20290;-74
2022/03/12 00:19:45;;;;;;;;;;;21.90;25.10;;;;;;5049941;28;19951;-74
2022/03/12 00:22:13;;;;;;;;;;;21.90;25.10;;;;;;5050495;28;19994;-73
2022/03/12 00:24:44;;;;;;;;;;;21.90;25.10;;;;;;5051483;28;20004;-74
2022/03/12 00:27:11;;;;;;;;;;;21.90;25.10;;;;;;5051736;28;20275;-73
2022/03/12 00:29:38;;;;;;;;;;;21.90;25.10;;;;;;5050234;28;19971;-74
2022/03/12 00:32:07;;;;;;;;;;;21.90;25.20;;;;;;5051575;28;20313;-73
2022/03/12 00:34:34;;;;;;;;;;;21.90;25.20;;;;;;5051164;28;19925;-73
2022/03/12 00:37:01;;;;;;;;;;;21.90;25.10;;;;;;5050342;28;19929;-73
2022/03/12 00:39:28;;;;;;;;;;;21.90;25.10;;;;;;5049812;28;19924;-73
2022/03/12 00:41:55;;;;;;;;;;;21.90;25.20;;;;;;5051159;28;20394;-74
2022/03/12 00:44:22;;;;;;;;;;;21.90;25.10;;;;;;5051070;28;19924;-73
2022/03/12 00:46:49;;;;;;;;;;;21.90;25.20;;;;;;5050957;28;20266;-73
2022/03/12 00:49:16;;;;;;;;;;;21.90;25.20;;;;;;5049298;28;19968;-74
2022/03/12 00:51:44;;;;;;;;;;;21.80;25.10;;;;;;5051237;28;20050;-74
2022/03/12 00:54:12;;;;;;;;;;;21.90;25.20;;;;;;5050773;28;19929;-73
2022/03/12 00:56:39;;;;;;;;;;;21.80;25.20;;;;;;5050789;28;19929;-76
2022/03/12 00:59:07;;;;;;;;;;;21.80;25.20;;;;;;5048451;28;19925;-74
2022/03/12 01:01:34;;;;;;;;;;;21.80;25.20;;;;;;5050826;28;19929;-73
2022/03/12 01:04:02;;;;;;;;;;;21.80;25.20;;;;;;5050177;28;20318;-73
2022/03/12 01:06:29;;;;;;;;;;;21.80;25.20;;;;;;5050989;28;19932;-73
2022/03/12 01:08:56;;;;;;;;;;;21.80;25.20;;;;;;5048790;28;19936;-73
2022/03/12 01:11:23;;;;;;;;;;;21.80;25.20;;;;;;5050592;28;20454;-73
2022/03/12 01:13:50;;;;;;;;;;;21.80;25.20;;;;;;5050550;28;20372;-75
2022/03/12 01:16:18;;;;;;;;;;;21.80;25.20;;;;;;5050298;28;19925;-74
2022/03/12 01:18:45;;;;;;;;;;;21.80;25.20;;;;;;5049793;28;20067;-75
2022/03/12 01:21:17;;;;;;;;;;;21.80;25.30;;;;;;5050080;28;20377;-74
2022/03/12 01:23:45;;;;;;;;;;;21.80;25.20;;;;;;5050621;28;19925;-74
2022/03/12 01:26:12;;;;;;;;;;;21.80;25.30;;;;;;5050872;28;19968;-75
2022/03/12 01:28:39;;;;;;;;;;;21.70;25.30;;;;;;5049673;28;20397;-73
2022/03/12 01:31:06;;;;;;;;;;;21.70;25.20;;;;;;5049741;28;19978;-73
2022/03/12 01:33:33;;;;;;;;;;;21.70;25.30;;;;;;5050478;28;20043;-74
2022/03/12 01:36:00;;;;;;;;;;;21.70;25.20;;;;;;5050697;28;19947;-73
2022/03/12 01:38:30;;;;;;;;;;;21.70;25.30;;;;;;5049907;28;19929;-74
2022/03/12 01:40:59;;;;;;;;;;;21.70;25.30;;;;;;5049438;28;19971;-74
2022/03/12 01:43:26;;;;;;;;;;;21.70;25.30;;;;;;5048924;28;19951;-73
2022/03/12 01:45:53;;;;;;;;;;;21.70;25.30;;;;;;5050267;28;19971;-75
2022/03/12 01:48:20;;;;;;;;;;;21.70;25.30;;;;;;5049865;28;19925;-74
2022/03/12 01:50:47;;;;;;;;;;;21.70;25.30;;;;;;5049758;28;19979;-74
2022/03/12 01:53:14;;;;;;;;;;;21.70;25.30;;;;;;5050324;28;20333;-74
2022/03/12 01:55:42;;;;;;;;;;;21.80;25.30;;;;;;5049990;28;20309;-75
2022/03/12 01:58:09;;;;;;;;;;;21.70;25.30;;;;;;5049513;28;19994;-74
2022/03/12 02:00:43;;;;;;;;;;;21.70;25.30;;;;;;5049015;28;19925;-74
2022/03/12 02:03:11;;;;;;;;;;;21.70;25.30;;;;;;5050306;28;20011;-74
2022/03/12 02:05:39;;;;;;;;;;;21.70;25.30;;;;;;5049995;28;19983;-73
2022/03/12 02:08:07;;;;;;;;;;;21.70;25.30;;;;;;5049981;28;19971;-74
2022/03/12 02:10:36;;;;;;;;;;;21.70;25.30;;;;;;5049148;28;20113;-74
2022/03/12 02:13:03;;;;;;;;;;;21.70;25.30;;;;;;5050254;28;19932;-74
2022/03/12 02:15:30;;;;;;;;;;;21.70;25.40;;;;;;5050885;28;20032;-74
2022/03/12 02:17:57;;;;;;;;;;;21.70;25.40;;;;;;5053844;28;19924;-74
2022/03/12 02:20:24;;;;;;;;;;;21.70;25.30;;;;;;5052850;28;19925;-74
2022/03/12 02:22:53;;;;;;;;;;;21.70;25.30;;;;;;5052494;28;19925;-75
2022/03/12 02:25:28;;;;;;;;;;;21.60;25.30;;;;;;5053827;28;19931;-74
2022/03/12 02:27:56;;;;;;;;;;;21.60;25.30;;;;;;5053655;28;19974;-74
2022/03/12 02:30:33;;;;;;;;;;;21.60;25.30;;;;;;5051679;28;19970;-74
2022/03/12 02:33:04;;;;;;;;;;;21.60;25.30;;;;;;5054130;28;19933;-75
2022/03/12 02:35:35;;;;;;;;;;;21.60;25.30;;;;;;5053277;28;19970;-74
2022/03/12 02:38:03;;;;;;;;;;;21.60;25.30;;;;;;5053941;28;19932;-74
2022/03/12 02:40:32;;;;;;;;;;;21.60;25.40;;;;;;5052321;28;19929;-74
2022/03/12 02:43:00;;;;;;;;;;;21.60;25.40;;;;;;5053655;28;19925;-74
2022/03/12 02:45:28;;;;;;;;;;;21.60;25.30;;;;;;5053249;28;19928;-74
2022/03/12 02:47:56;;;;;;;;;;;21.60;25.40;;;;;;5053600;28;19983;-74
2022/03/12 02:50:24;;;;;;;;;;;21.60;25.40;;;;;;5052339;28;19932;-74
2022/03/12 02:52:51;;;;;;;;;;;21.60;25.40;;;;;;5053235;28;19929;-75
2022/03/12 02:55:21;;;;;;;;;;;21.60;25.40;;;;;;5053171;28;20427;-74
2022/03/12 02:57:49;;;;;;;;;;;21.60;25.40;;;;;;5052883;28;19972;-74
2022/03/12 03:00:18;;;;;;;;;;;21.50;25.40;;;;;;5052548;28;19925;-74
2022/03/12 03:02:53;;;;;;;;;;;21.50;25.40;;;;;;5052931;28;19932;-73
2022/03/12 03:05:31;;;;;;;;;;;21.60;25.40;;;;;;5052693;28;20309;-73
2022/03/12 03:08:02;;;;;;;;;;;21.50;25.40;;;;;;5052603;28;19971;-74
2022/03/12 03:10:36;;;;;;;;;;;21.50;25.40;;;;;;5051672;28;19925;-74
2022/03/12 03:13:23;;;;;;;;;;;21.50;25.40;;;;;;5052885;28;20381;-75
2022/03/12 03:15:53;;;;;;;;;;;21.50;25.40;;;;;;5052505;28;19964;-74
2022/03/12 03:18:22;;;;;;;;;;;21.50;25.40;;;;;;5052601;28;19925;-74
2022/03/12 03:20:50;;;;;;;;;;;21.50;25.40;;;;;;5052166;28;19928;-74
2022/03/12 03:23:17;;;;;;;;;;;21.50;25.60;;;;;;5052674;28;19924;-74
2022/03/12 03:25:47;;;;;;;;;;;21.50;25.40;;;;;;5052866;28;20310;-74
2022/03/12 03:28:15;;;;;;;;;;;21.50;25.40;;;;;;5051784;28;19955;-74
2022/03/12 03:30:42;;;;;;;;;;;21.50;25.40;;;;;;5051111;28;19925;-74
2022/03/12 03:33:11;;;;;;;;;;;21.50;25.40;;;;;;5051481;28;19929;-75
2022/03/12 03:35:38;;;;;;;;;;;21.50;25.40;;;;;;5051284;28;19998;-74
2022/03/12 03:38:06;;;;;;;;;;;21.50;25.40;;;;;;5052411;28;19950;-76
2022/03/12 03:40:33;;;;;;;;;;;21.50;25.50;;;;;;5051365;28;19925;-75
2022/03/12 03:43:00;;;;;;;;;;;21.50;25.40;;;;;;5051346;28;19924;-75
2022/03/12 03:45:27;;;;;;;;;;;21.50;25.40;;;;;;5051956;28;19972;-74
2022/03/12 03:47:55;;;;;;;;;;;21.50;25.40;;;;;;5052422;28;19924;-74
2022/03/12 03:50:26;;;;;;;;;;;21.50;25.40;;;;;;5051727;28;19924;-74
2022/03/12 03:52:56;;;;;;;;;;;21.50;25.40;;;;;;5051963;28;19925;-75
2022/03/12 03:55:25;;;;;;;;;;;21.50;25.40;;;;;;5052242;28;19971;-74
2022/03/12 03:57:53;;;;;;;;;;;21.50;25.50;;;;;;5050410;28;19971;-74
2022/03/12 04:00:24;;;;;;;;;;;21.50;25.40;;;;;;5050841;28;19924;-75
2022/03/12 04:03:08;;;;;;;;;;;21.50;25.50;;;;;;5052212;28;19929;-74
2022/03/12 04:05:36;;;;;;;;;;;21.50;25.50;;;;;;5051588;28;19924;-73
2022/03/12 04:08:04;;;;;;;;;;;21.50;25.50;;;;;;5051737;28;20386;-74
2022/03/12 04:10:31;;;;;;;;;;;21.50;25.50;;;;;;5050945;28;19925;-74
2022/03/12 04:12:58;;;;;;;;;;;21.50;25.50;;;;;;5051791;28;19929;-75
2022/03/12 04:15:25;;;;;;;;;;;21.40;25.50;;;;;;5051783;28;19979;-75
2022/03/12 04:17:53;;;;;;;;;;;21.50;25.50;;;;;;5050553;28;19929;-75
2022/03/12 04:20:21;;;;;;;;;;;21.40;25.50;;;;;;5050655;28;19964;-74
2022/03/12 04:22:50;;;;;;;;;;;21.40;25.50;;;;;;5051286;28;19925;-75
2022/03/12 04:25:18;;;;;;;;;;;21.40;25.50;;;;;;5049931;28;19925;-75
2022/03/12 04:27:45;;;;;;;;;;;21.40;25.50;;;;;;5051476;28;19929;-75
2022/03/12 04:30:12;;;;;;;;;;;21.40;25.50;;;;;;5050830;28;20329;-75
2022/03/12 04:32:40;;;;;;;;;;;21.40;25.50;;;;;;5051216;28;19966;-74
2022/03/12 04:35:08;;;;;;;;;;;21.40;25.50;;;;;;5051514;28;19978;-75
2022/03/12 04:37:35;;;;;;;;;;;21.40;25.50;;;;;;5051411;28;19932;-74
2022/03/12 04:40:04;;;;;;;;;;;21.40;25.50;;;;;;5049845;28;19925;-74
2022/03/12 04:42:31;;;;;;;;;;;21.40;25.50;;;;;;5051557;28;19994;-76
2022/03/12 04:44:58;;;;;;;;;;;21.40;25.50;;;;;;5050888;28;19932;-75
2022/03/12 04:47:25;;;;;;;;;;;21.40;25.50;;;;;;5050965;28;19975;-74
2022/03/12 04:49:52;;;;;;;;;;;21.40;25.50;;;;;;5050310;28;20523;-75
2022/03/12 04:52:20;;;;;;;;;;;21.40;25.50;;;;;;5050929;28;19925;-75
2022/03/12 04:54:47;;;;;;;;;;;21.40;25.50;;;;;;5050808;28;19925;-74
2022/03/12 04:57:14;;;;;;;;;;;21.40;25.50;;;;;;5051049;28;19984;-74
2022/03/12 04:59:41;;;;;;;;;;;21.40;25.50;;;;;;5050092;28;19955;-75
2022/03/12 05:02:11;;;;;;;;;;;21.40;25.50;;;;;;5049973;28;19944;-75
2022/03/12 05:04:38;;;;;;;;;;;21.40;25.50;;;;;;5050585;28;19924;-73
2022/03/12 05:07:07;;;;;;;;;;;21.40;25.70;;;;;;5051056;28;19925;-74
2022/03/12 05:09:35;;;;;;;;;;;21.30;25.50;;;;;;5050016;28;19948;-75
2022/03/12 05:12:05;;;;;;;;;;;21.30;25.50;;;;;;5050455;28;19970;-76
2022/03/12 05:14:34;;;;;;;;;;;21.40;25.50;;;;;;5050837;28;19971;-75
2022/03/12 05:17:08;;;;;;;;;;;21.40;25.50;;;;;;5050690;28;19925;-76
2022/03/12 05:19:36;;;;;;;;;;;21.40;25.50;;;;;;5050194;28;19924;-75
2022/03/12 05:22:03;;;;;;;;;;;21.40;25.50;;;;;;5050701;28;19925;-75
2022/03/12 05:24:31;;;;;;;;;;;21.40;25.50;;;;;;5048526;28;19924;-74
2022/03/12 05:26:59;;;;;;;;;;;21.40;25.50;;;;;;5048671;28;19970;-75
2022/03/12 05:29:26;;;;;;;;;;;21.40;25.50;;;;;;5049322;28;19928;-76
2022/03/12 05:31:53;;;;;;;;;;;21.40;25.50;;;;;;5050634;28;19925;-76
2022/03/12 05:34:22;;;;;;;;;;;21.40;25.50;;;;;;5049892;28;19925;-75
2022/03/12 05:36:50;;;;;;;;;;;21.40;25.50;;;;;;5050505;28;20362;-76
2022/03/12 05:39:17;;;;;;;;;;;21.40;25.40;;;;;;5050012;28;19929;-74
2022/03/12 05:41:44;;;;;;;;;;;21.40;25.40;;;;;;5050688;28;20344;-76
2022/03/12 05:44:14;;;;;;;;;;;21.40;25.40;;;;;;5050092;28;19924;-74
2022/03/12 05:46:42;;;;;;;;;;;21.40;25.50;;;;;;5050326;28;20285;-75
2022/03/12 05:49:09;;;;;;;;;;;21.40;25.40;;;;;;5048907;28;19925;-75
2022/03/12 05:51:36;;;;;;;;;;;21.40;25.40;;;;;;5054347;28;19961;-75
2022/03/12 05:54:03;;;;;;;;;;;21.40;25.40;;;;;;5054210;28;19925;-74
2022/03/12 05:56:31;;;;;;;;;;;21.40;25.40;;;;;;5054433;28;20340;-75
2022/03/12 05:58:57;;;;;;;;;;;21.50;25.50;;;;;;5052954;28;19925;-75
2022/03/12 06:01:24;;;;;;;;;;;21.50;25.50;;;;;;5054221;28;19951;-74
2022/03/12 06:03:53;;;;;;;;;;;21.50;25.40;;;;;;5054387;28;19932;-74
2022/03/12 06:06:24;;;;;;;;;;;21.50;25.40;;;;;;5054350;28;20328;-74
2022/03/12 06:08:51;;;;;;;;;;;21.50;25.40;;;;;;5036238;28;20381;-75
2022/03/12 06:11:19;;;;;;;;;;;21.50;25.10;;;;;;5054375;28;20376;-75
2022/03/12 06:13:51;;;;;;;;;;;21.40;25.10;;;;;;5036357;28;19925;-75
2022/03/12 06:16:18;;;;;;;;;;;21.40;25.10;;;;;;5052409;28;19971;-76
2022/03/12 06:18:46;;;;;;;;;;;21.40;25.00;;;;;;5034820;28;19924;-76
2022/03/12 06:21:13;;;;;;;;;;;21.40;25.00;;;;;;5053463;28;19970;-75
2022/03/12 06:23:40;;;;;;;;;;;21.50;25.30;;;;;;5053531;28;19971;-75
2022/03/12 06:26:10;;;;;;;;;;;21.40;24.80;;;;;;5052238;28;19925;-75
2022/03/12 06:28:38;;;;;;;;;;;21.50;24.70;;;;;;5051487;28;19939;-75
2022/03/12 06:31:06;;;;;;;;;;;21.60;24.60;;;;;;5053215;28;20374;-75
2022/03/12 06:33:34;;;;;;;;;;;21.60;24.60;;;;;;5053790;28;19925;-77
2022/03/12 06:36:04;;;;;;;;;;;21.60;24.50;;;;;;5051643;28;19932;-74
2022/03/12 06:38:31;;;;;;;;;;;21.70;24.40;;;;;;5051853;28;20382;-75
2022/03/12 06:40:58;;;;;;;;;;;21.70;24.30;;;;;;5053267;28;19924;-75
2022/03/12 06:43:27;;;;;;;;;;;21.80;24.30;;;;;;5053799;28;20004;-74
2022/03/12 06:45:59;;;;;;;;;;;21.90;24.20;;;;;;5053331;28;19971;-75
2022/03/12 06:48:28;;;;;;;;;;;21.90;24.10;;;;;;5053209;28;19928;-74
2022/03/12 06:50:56;;;;;;;;;;;22.00;24.10;;;;;;5053136;28;19990;-75
2022/03/12 06:53:23;;;;;;;;;;;22.10;24.50;;;;;;5053442;28;19925;-74
2022/03/12 06:55:50;;;;;;;;;;;22.10;23.90;;;;;;5053004;28;19925;-75
2022/03/12 06:58:17;;;;;;;;;;;22.20;23.80;;;;;;5053496;28;19925;-75
2022/03/12 07:00:45;;;;;;;;;;;22.30;23.80;;;;;;5035099;28;19970;-75
2022/03/12 07:03:12;;;;;;;;;;;22.30;23.60;;;;;;5052003;28;19925;-73
2022/03/12 07:05:39;;;;;;;;;;;22.40;23.60;;;;;;5052607;28;19971;-74
2022/03/12 07:08:06;;;;;;;;;;;22.50;23.60;;;;;;5052941;28;19990;-75
2022/03/12 07:10:33;;;;;;;;;;;22.60;23.50;;;;;;5052874;28;19924;-75
2022/03/12 07:13:00;;;;;;;;;;;22.60;23.40;;;;;;5052800;28;19925;-75
2022/03/12 07:15:27;;;;;;;;;;;22.70;23.40;;;;;;5052402;28;19925;-75
2022/03/12 07:17:54;;;;;;;;;;;22.70;23.30;;;;;;5052428;28;19948;-75
2022/03/12 07:20:22;;;;;;;;;;;22.80;23.30;;;;;;5052417;28;19925;-74
2022/03/12 07:22:49;;;;;;;;;;;22.90;23.30;;;;;;5052771;28;19925;-75
2022/03/12 07:25:16;;;;;;;;;;;22.90;23.30;;;;;;5050254;28;19925;-74
2022/03/12 07:27:43;;;;;;;;;;;22.90;23.20;;;;;;5049674;28;19964;-76
2022/03/12 07:30:12;;;;;;;;;;;23.00;23.20;;;;;;5049937;28;19925;-75
2022/03/12 07:32:42;;;;;;;;;;;23.10;23.20;;;;;;5050152;28;20019;-75
2022/03/12 07:35:11;;;;;;;;;;;23.10;23.20;;;;;;5049577;28;20358;-75
2022/03/12 07:37:38;;;;;;;;;;;23.20;23.10;;;;;;5049676;28;19928;-74
2022/03/12 07:40:06;;;;;;;;;;;23.30;22.90;;;;;;5049706;28;19928;-74
2022/03/12 07:42:33;;;;;;;;;;;23.30;22.90;;;;;;5049361;28;19999;-75
2022/03/12 07:45:00;;;;;;;;;;;23.30;22.80;;;;;;5049572;28;20069;-75
2022/03/12 07:47:27;;;;;;;;;;;23.40;22.80;;;;;;5049705;28;19924;-74
2022/03/12 07:49:55;;;;;;;;;;;23.40;22.80;;;;;;5049887;28;20374;-75
2022/03/12 07:52:22;;;;;;;;;;;23.50;22.80;;;;;;5047450;28;20378;-74
2022/03/12 07:54:49;;;;;;;;;;;23.50;22.70;;;;;;5048349;28;20328;-73
2022/03/12 07:57:17;;;;;;;;;;;23.60;22.90;;;;;;5048457;28;19929;-72
2022/03/12 07:59:44;;;;;;;;;;;23.60;22.90;;;;;;5049084;28;19924;-73
2022/03/12 08:02:11;;;;;;;;;;;23.60;22.80;;;;;;5044840;28;19952;-76
2022/03/12 08:04:38;;;;;;;;;;;23.70;23.00;;;;;;5030257;28;20359;-75
2022/03/12 08:07:06;;;;;;;;;;;23.80;22.90;;;;;;5033364;28;19987;-76
2022/03/12 08:09:33;;;;;;;;;;;23.80;22.70;;;;;;5043546;28;19925;-77
2022/03/12 08:12:01;;;;;;;;;;;23.80;23.00;;;;;;5041488;28;19928;-74
2022/03/12 08:14:28;;;;;;;;;;;23.90;23.10;;;;;;5052145;28;19925;-74
2022/03/12 08:16:55;;;;;;;;;;;23.90;23.20;;;;;;5051290;28;19924;-78
2022/03/12 08:23:11;;;;;;;;;;;24.00;23.20;;;;;;5046550;28;19924;-77
2022/03/12 08:25:38;;;;;;;;;;;24.00;23.20;;;;;;5034417;28;20326;-78
2022/03/12 08:28:05;;;;;;;;;;;24.10;23.20;;;;;;5032595;28;19929;-74
2022/03/12 08:30:33;;;;;;;;;;;24.10;23.20;;;;;;5049857;28;19925;-77
2022/03/12 08:33:00;;;;;;;;;;;24.10;23.10;;;;;;5080794;28;19925;-74
2022/03/12 08:45:07;;;;;;;;;;;24.30;22.70;;;;;;5002361;28;19932;-58
2022/03/12 08:47:34;;;;;;;;;;;24.40;22.70;;;;;;5005889;28;19975;-58
2022/03/12 08:50:03;;;;;;;;;;;24.50;23.10;;;;;;5143217;22;19956;-75
2022/03/12 08:52:30;;;;;;;;;;;24.50;22.70;;;;;;5039144;28;19932;-74
2022/03/12 08:54:57;;;;;;;;;;;24.50;22.60;;;;;;5044266;28;19928;-77
2022/03/12 08:57:24;;;;;;;;;;;24.50;22.60;;;;;;5026088;28;19929;-75
2022/03/12 08:59:52;;;;;;;;;;;24.60;22.40;;;;;;5022808;28;19998;-71
2022/03/12 09:02:21;;;;;;;;;;;24.70;22.30;;;;;;5010672;28;19926;-77
2022/03/12 09:04:48;;;;;;;;;;;24.70;22.30;;;;;;5026380;28;19932;-72
2022/03/12 09:07:15;;;;;;;;;;;24.70;22.30;;;;;;5027740;28;20011;-73
2022/03/12 09:09:42;;;;;;;;;;;24.70;22.30;;;;;;5028348;28;19979;-71
2022/03/12 10:06:50;;;;;;;;;;;25.20;21.10;;;;;;4916475;22;19925;-58
2022/03/12 10:09:17;;;;;;;;;;;25.10;20.90;;;;;;5019080;28;19933;-58
2022/03/12 10:11:45;;;;;;;;;;;25.10;21.10;;;;;;5040247;28;19970;-58
2022/03/12 10:14:12;;;;;;;;;;;25.10;21.10;;;;;;5047771;28;19929;-58
2022/03/12 10:16:39;;;;;;;;;;;25.10;21.10;;;;;;5217863;22;19928;-58
2022/03/12 10:19:06;;;;;;;;;;;25.10;21.20;;;;;;5056733;28;19932;-59
2022/03/12 10:25:19;;;;;;;;;;;25.00;21.20;;;;;;5041997;28;19967;-58
2022/03/12 10:27:46;;;;;;;;;;;25.00;21.00;;;;;;5224229;22;19946;-58
2022/03/12 10:30:13;;;;;;;;;;;24.90;21.00;;;;;;5041641;28;19925;-59
2022/03/12 10:32:44;;;;;;;;;;;24.90;21.10;;;;;;5378621;22;19931;-63
2022/03/12 10:35:12;;;;;;;;;;;24.90;21.10;;;;;;5022936;28;19933;-64
2022/03/12 10:37:40;;;;;;;;;;;24.90;21.10;;;;;;5042696;28;20499;-64
2022/03/12 10:40:12;;;;;;;;;;;24.90;21.00;;;;;;5034463;28;19931;-63
2022/03/12 10:42:49;;;;;;;;;;;24.90;21.00;;;;;;5029204;28;20390;-62
2022/03/12 10:45:18;;;;;;;;;;;24.90;21.00;;;;;;5139652;22;20001;-59
2022/03/12 10:47:46;;;;;;;;;;;24.90;21.00;;;;;;5046704;28;19982;-59
2022/03/12 10:50:15;;;;;;;;;;;24.90;21.00;;;;;;5050227;28;19929;-60
2022/03/12 10:52:46;;;;;;;;;;;24.90;21.00;;;;;;5111225;22;19931;-63
2022/03/12 10:55:16;;;;;;;;;;;24.90;21.00;;;;;;5036768;28;20274;-64
2022/03/12 10:58:03;;;;;;;;;;;24.90;20.90;;;;;;5037224;28;20340;-64
2022/03/12 11:00:41;;;;;;;;;;;24.90;20.90;;;;;;5029035;28;19926;-62
2022/03/12 11:03:12;;;;;;;;;;;24.90;20.90;;;;;;5028975;28;19925;-63
2022/03/12 11:05:41;;;;;;;;;;;24.90;20.80;;;;;;5030072;28;20377;-64
2022/03/12 11:08:13;;;;;;;;;;;24.90;20.80;;;;;;5017334;28;19934;-65
2022/03/12 11:10:46;;;;;;;;;;;24.90;20.90;;;;;;4994109;28;20394;-62
2022/03/12 11:13:25;;;;;;;;;;;24.80;20.90;;;;;;4990598;28;20433;-62
2022/03/12 11:16:08;;;;;;;;;;;24.80;20.80;;;;;;4991271;28;20175;-63
2022/03/12 11:18:35;;;;;;;;;;;24.80;20.80;;;;;;4990441;28;19934;-62
2022/03/12 11:21:05;;;;;;;;;;;24.80;20.70;;;;;;5027656;22;19950;-83
2022/03/12 11:23:45;;;;;;;;;;;24.80;20.70;;;;;;5072431;22;19924;-60
2022/03/12 11:26:12;;;;;;;;;;;24.80;20.70;;;;;;5052260;28;20021;-61
2022/03/12 11:28:42;;;;;;;;;;;24.80;20.70;;;;;;5053284;28;20091;-59
2022/03/12 11:31:10;;;;;;;;;;;24.80;20.70;;;;;;5049963;28;19929;-60
2022/03/12 11:33:38;;;;;;;;;;;24.80;20.70;;;;;;5049746;28;20368;-59
2022/03/12 11:36:09;;;;;;;;;;;24.80;20.70;;;;;;5049334;28;19979;-59
2022/03/12 11:38:37;;;;;;;;;;;24.80;20.70;;;;;;5050070;28;19925;-60
2022/03/12 11:41:09;;;;;;;;;;;24.80;20.70;;;;;;5048100;28;19925;-60
2022/03/12 11:43:40;;;;;;;;;;;24.70;20.60;;;;;;5049258;28;20016;-59
2022/03/12 11:46:09;;;;;;;;;;;24.80;20.50;;;;;;5050076;28;19970;-60
2022/03/12 11:48:38;;;;;;;;;;;24.70;20.50;;;;;;5048765;28;19935;-60
2022/03/12 11:51:19;;;;;;;;;;;24.70;20.40;;;;;;5049632;28;19940;-59
2022/03/12 11:53:47;;;;;;;;;;;24.70;20.30;;;;;;5047956;28;19928;-59
2022/03/12 11:56:15;;;;;;;;;;;24.70;20.30;;;;;;5048320;28;20404;-60
2022/03/12 11:58:46;;;;;;;;;;;24.70;20.20;;;;;;5048832;28;19929;-59
2022/03/12 12:01:20;;;;;;;;;;;24.70;20.20;;;;;;5049089;28;20142;-60
2022/03/12 12:03:50;;;;;;;;;;;24.70;20.10;;;;;;5049307;28;19932;-59
2022/03/12 12:06:17;;;;;;;;;;;24.70;20.10;;;;;;5048901;28;19925;-59
2022/03/12 12:08:45;;;;;;;;;;;24.70;20.10;;;;;;5048889;28;20385;-59
2022/03/12 12:11:12;;;;;;;;;;;24.70;20.10;;;;;;5048721;28;20396;-59
2022/03/12 12:13:44;;;;;;;;;;;24.70;20.00;;;;;;5048889;28;19925;-59
2022/03/12 12:16:12;;;;;;;;;;;24.70;20.00;;;;;;5049174;28;19925;-59
2022/03/12 12:18:39;;;;;;;;;;;24.70;20.00;;;;;;5048904;28;19925;-59
2022/03/12 12:21:06;;;;;;;;;;;24.70;20.00;;;;;;5049005;28;19955;-60
2022/03/12 12:23:33;;;;;;;;;;;24.70;20.00;;;;;;5048132;28;19936;-60
2022/03/12 12:26:08;;;;;;;;;;;24.70;20.00;;;;;;5047931;28;19929;-60
2022/03/12 12:28:46;;;;;;;;;;;24.70;20.00;;;;;;5048391;28;19940;-59
2022/03/12 12:31:17;;;;;;;;;;;24.60;19.90;;;;;;5048250;28;19979;-60
2022/03/12 12:33:44;;;;;;;;;;;24.70;20.00;;;;;;5048498;28;19925;-59
2022/03/12 12:36:13;;;;;;;;;;;24.60;20.00;;;;;;5048250;28;19983;-59
2022/03/12 12:38:43;;;;;;;;;;;24.60;19.90;;;;;;5048410;28;20426;-59
2022/03/12 12:41:10;;;;;;;;;;;24.60;19.90;;;;;;5043888;28;19986;-60
2022/03/12 12:43:39;;;;;;;;;;;24.60;19.90;;;;;;5046623;28;19925;-59
2022/03/12 12:46:12;;;;;;;;;;;24.60;19.90;;;;;;5048847;28;20133;-59
2022/03/12 21:45:03;;;;;;;;;;;22.50;22.90;;;;;;5951662;23;19901;-61
2022/03/12 21:47:30;;;;;;;;;;;22.50;22.90;;;;;;4930139;29;19927;-60
2022/03/12 21:49:57;;;;;;;;;;;22.50;22.90;;;;;;4931076;29;19926;-59
2022/03/12 21:52:25;;;;;;;;;;;22.50;23.00;;;;;;4930687;29;19927;-60
2022/03/12 21:54:52;;;;;;;;;;;22.50;23.00;;;;;;4930740;29;19927;-60
2022/03/12 21:57:19;;;;;;;;;;;22.50;23.00;;;;;;5261329;23;20605;-60
2022/03/12 21:59:46;;;;;;;;;;;22.50;23.00;;;;;;5134490;23;20339;-64
2022/03/12 22:02:13;;;;;;;;;;;22.40;23.00;;;;;;4916300;29;19927;-64
2022/03/12 22:04:40;;;;;;;;;;;22.50;23.00;;;;;;4923960;29;20470;-64
2022/03/12 22:07:08;;;;;;;;;;;22.50;23.10;;;;;;4930170;29;19979;-67
2022/03/12 22:09:36;;;;;;;;;;;22.40;23.00;;;;;;4929540;29;19939;-64
2022/03/12 22:12:03;;;;;;;;;;;22.40;23.00;;;;;;4930679;29;19927;-64
2022/03/12 22:14:31;;;;;;;;;;;22.40;23.10;;;;;;4918090;28;71828;-64
2022/03/12 22:16:59;;;;;;;;;;;22.40;23.10;;;;;;4928744;28;19931;-64
2022/03/12 22:19:27;;;;;;;;;;;22.40;23.10;;;;;;4930667;29;20384;-64
2022/03/12 22:21:56;;;;;;;;;;;22.40;23.10;;;;;;4929315;29;20615;-64
2022/03/12 22:24:24;;;;;;;;;;;22.40;23.10;;;;;;4930472;29;19982;-64
2022/03/12 22:26:52;;;;;;;;;;;22.40;23.20;;;;;;4931153;29;19948;-64
2022/03/12 22:29:19;;;;;;;;;;;22.40;23.20;;;;;;4930339;29;19982;-64
2022/03/12 22:31:46;;;;;;;;;;;22.30;23.20;;;;;;4931008;29;19951;-64
2022/03/12 22:34:13;;;;;;;;;;;22.40;23.20;;;;;;4933833;29;19978;-64
2022/03/12 22:36:41;;;;;;;;;;;22.30;23.20;;;;;;4934115;29;19935;-64
2022/03/12 22:39:08;;;;;;;;;;;22.40;23.20;;;;;;4934131;29;20000;-64
2022/03/12 22:41:38;;;;;;;;;;;22.40;23.20;;;;;;4933690;29;19927;-64
2022/03/12 22:44:11;;;;;;;;;;;22.40;23.20;;;;;;4934047;29;20418;-64
2022/03/12 22:46:37;;;;;;;;;;;22.30;23.20;;;;;;4933831;29;20044;-64
2022/03/12 22:49:08;;;;;;;;;;;22.30;23.20;;;;;;4934139;29;20299;-64
2022/03/12 22:51:40;;;;;;;;;;;22.30;23.20;;;;;;4933711;29;19926;-64
2022/03/12 22:54:07;;;;;;;;;;;22.30;23.20;;;;;;4933673;29;19934;-64
2022/03/12 22:56:37;;;;;;;;;;;22.30;23.30;;;;;;4934090;29;20352;-64
2022/03/12 22:59:04;;;;;;;;;;;22.30;23.30;;;;;;4933536;29;19977;-64
2022/03/12 23:01:51;;;;;;;;;;;22.30;23.30;;;;;;4933724;29;20375;-64
2022/03/12 23:09:53;;;;;;;;;;;22.30;23.30;;;;;;4933740;29;20010;-64
2022/03/12 23:12:20;;;;;;;;;;;22.30;23.40;;;;;;4932524;29;19931;-64
2022/03/12 23:14:51;;;;;;;;;;;22.30;23.40;;;;;;4933403;29;20335;-64
2022/03/12 23:17:21;;;;;;;;;;;22.30;23.30;;;;;;4933134;29;20029;-65
2022/03/12 23:19:52;;;;;;;;;;;22.30;23.30;;;;;;4933215;29;19933;-64
2022/03/12 23:22:20;;;;;;;;;;;22.30;23.40;;;;;;4933345;29;20022;-64
2022/03/12 23:24:50;;;;;;;;;;;22.30;23.40;;;;;;4932946;29;19935;-64
2022/03/12 23:27:28;;;;;;;;;;;22.20;23.40;;;;;;4933174;29;19986;-64
2022/03/12 23:29:56;;;;;;;;;;;22.20;23.40;;;;;;4933059;29;19933;-64
2022/03/12 23:32:23;;;;;;;;;;;22.20;23.40;;;;;;4933469;29;19974;-64
2022/03/12 23:34:50;;;;;;;;;;;22.20;23.50;;;;;;4934320;29;20273;-64
2022/03/12 23:37:18;;;;;;;;;;;22.20;23.50;;;;;;4933059;29;20000;-64
2022/03/12 23:39:45;;;;;;;;;;;22.20;23.50;;;;;;4933264;29;20025;-64
2022/03/12 23:42:14;;;;;;;;;;;22.20;23.50;;;;;;4931719;29;20443;-64
2022/03/12 23:44:42;;;;;;;;;;;22.20;23.50;;;;;;4932105;29;19930;-64
2022/03/12 23:47:09;;;;;;;;;;;22.20;23.50;;;;;;4932588;29;20416;-64
2022/03/12 23:49:36;;;;;;;;;;;22.20;23.50;;;;;;4932757;29;19927;-64
2022/03/12 23:52:24;;;;;;;;;;;22.20;23.50;;;;;;4932827;29;19934;-64
2022/03/12 23:54:55;;;;;;;;;;;22.20;23.50;;;;;;4932274;29;19927;-64
2022/03/12 23:57:24;;;;;;;;;;;22.10;23.50;;;;;;4931715;29;19927;-64
2022/03/12 23:59:56;;;;;;;;;;;22.10;23.50;;;;;;4932523;29;19927;-63
